sensor_id;sensor_type;location;lat;lon;timestamp;P1;durP1;ratioP1;P2;durP2;ratioP2
7361;SDS011;3721;44.490;11.220;2022-09-23T00:01:00;4.10;;;1.80;;
7361;SDS011;3721;44.490;11.220;2022-09-23T00:03:31;3.10;;;1.50;;
7361;SDS011;3721;44.490;11.220;2022-09-23T00:05:58;3.10;;;1.70;;
7361;SDS011;3721;44.490;11.220;2022-09-23T00:08:25;3.50;;;1.70;;
7361;SDS011;3721;44.490;11.220;2022-09-23T00:10:52;2.90;;;1.63;;
7361;SDS011;3721;44.490;11.220;2022-09-23T00:13:18;2.80;;;1.67;;
7361;SDS011;3721;44.490;11.220;2022-09-23T00:15:44;3.80;;;1.53;;
7361;SDS011;3721;44.490;11.220;2022-09-23T00:18:10;6.40;;;1.70;;
7361;SDS011;3721;44.490;11.220;2022-09-23T00:20:36;4.60;;;1.90;;
7361;SDS011;3721;44.490;11.220;2022-09-23T00:23:02;5.30;;;1.70;;
7361;SDS011;3721;44.490;11.220;2022-09-23T00:25:28;4.43;;;1.80;;
7361;SDS011;3721;44.490;11.220;2022-09-23T00:27:54;5.20;;;1.70;;
7361;SDS011;3721;44.490;11.220;2022-09-23T00:30:20;3.07;;;1.77;;
7361;SDS011;3721;44.490;11.220;2022-09-23T00:32:47;2.70;;;1.40;;
7361;SDS011;3721;44.490;11.220;2022-09-23T00:35:13;3.47;;;1.67;;
7361;SDS011;3721;44.490;11.220;2022-09-23T00:37:39;3.37;;;1.60;;
7361;SDS011;3721;44.490;11.220;2022-09-23T00:40:05;3.63;;;1.80;;
7361;SDS011;3721;44.490;11.220;2022-09-23T00:42:32;3.20;;;1.60;;
7361;SDS011;3721;44.490;11.220;2022-09-23T00:44:59;3.27;;;1.73;;
7361;SDS011;3721;44.490;11.220;2022-09-23T00:47:36;5.17;;;1.73;;
7361;SDS011;3721;44.490;11.220;2022-09-23T00:52:54;3.67;;;1.63;;
7361;SDS011;3721;44.490;11.220;2022-09-23T00:55:27;2.90;;;1.67;;
7361;SDS011;3721;44.490;11.220;2022-09-23T00:57:59;2.50;;;1.30;;
7361;SDS011;3721;44.490;11.220;2022-09-23T01:00:27;3.10;;;1.60;;
7361;SDS011;3721;44.490;11.220;2022-09-23T01:02:53;3.90;;;1.60;;
7361;SDS011;3721;44.490;11.220;2022-09-23T01:05:19;7.27;;;1.93;;
7361;SDS011;3721;44.490;11.220;2022-09-23T01:07:45;2.77;;;1.60;;
7361;SDS011;3721;44.490;11.220;2022-09-23T01:10:12;2.73;;;1.57;;
7361;SDS011;3721;44.490;11.220;2022-09-23T01:34:34;4.53;;;1.60;;
7361;SDS011;3721;44.490;11.220;2022-09-23T01:37:09;3.63;;;1.60;;
7361;SDS011;3721;44.490;11.220;2022-09-23T01:42:40;5.47;;;1.70;;
7361;SDS011;3721;44.490;11.220;2022-09-23T01:47:43;3.00;;;1.50;;
7361;SDS011;3721;44.490;11.220;2022-09-23T01:50:31;5.37;;;1.50;;
7361;SDS011;3721;44.490;11.220;2022-09-23T01:56:09;3.17;;;1.97;;
7361;SDS011;3721;44.490;11.220;2022-09-23T01:58:48;5.13;;;1.80;;
7361;SDS011;3721;44.490;11.220;2022-09-23T02:01:23;3.17;;;1.50;;
7361;SDS011;3721;44.490;11.220;2022-09-23T02:04:19;3.53;;;1.70;;
7361;SDS011;3721;44.490;11.220;2022-09-23T02:07:19;2.93;;;1.60;;
7361;SDS011;3721;44.490;11.220;2022-09-23T02:09:46;3.40;;;1.80;;
7361;SDS011;3721;44.490;11.220;2022-09-23T02:12:26;3.17;;;1.77;;
7361;SDS011;3721;44.490;11.220;2022-09-23T02:17:29;2.90;;;1.63;;
7361;SDS011;3721;44.490;11.220;2022-09-23T02:20:03;2.70;;;1.60;;
7361;SDS011;3721;44.490;11.220;2022-09-23T02:22:42;3.40;;;1.63;;
7361;SDS011;3721;44.490;11.220;2022-09-23T02:25:21;4.27;;;1.83;;
7361;SDS011;3721;44.490;11.220;2022-09-23T02:27:57;3.37;;;1.80;;
7361;SDS011;3721;44.490;11.220;2022-09-23T02:30:36;2.93;;;1.70;;
7361;SDS011;3721;44.490;11.220;2022-09-23T02:33:26;3.60;;;1.67;;
7361;SDS011;3721;44.490;11.220;2022-09-23T02:36:05;2.73;;;1.50;;
7361;SDS011;3721;44.490;11.220;2022-09-23T02:38:51;2.80;;;1.50;;
7361;SDS011;3721;44.490;11.220;2022-09-23T02:46:31;4.00;;;1.63;;
7361;SDS011;3721;44.490;11.220;2022-09-23T02:48:59;5.10;;;2.30;;
7361;SDS011;3721;44.490;11.220;2022-09-23T02:51:28;7.80;;;1.67;;
7361;SDS011;3721;44.490;11.220;2022-09-23T02:53:58;4.87;;;1.70;;
7361;SDS011;3721;44.490;11.220;2022-09-23T02:56:26;2.73;;;1.33;;
7361;SDS011;3721;44.490;11.220;2022-09-23T02:58:52;3.17;;;1.60;;
7361;SDS011;3721;44.490;11.220;2022-09-23T03:01:33;2.80;;;1.40;;
7361;SDS011;3721;44.490;11.220;2022-09-23T03:15:17;8.93;;;1.67;;
7361;SDS011;3721;44.490;11.220;2022-09-23T03:23:14;3.23;;;1.70;;
7361;SDS011;3721;44.490;11.220;2022-09-23T03:25:54;3.17;;;1.50;;
7361;SDS011;3721;44.490;11.220;2022-09-23T03:28:22;2.60;;;1.50;;
7361;SDS011;3721;44.490;11.220;2022-09-23T03:30:49;4.87;;;2.03;;
7361;SDS011;3721;44.490;11.220;2022-09-23T03:33:17;3.97;;;1.50;;
7361;SDS011;3721;44.490;11.220;2022-09-23T03:35:51;4.40;;;1.63;;
7361;SDS011;3721;44.490;11.220;2022-09-23T03:38:42;2.70;;;1.43;;
7361;SDS011;3721;44.490;11.220;2022-09-23T03:41:10;3.97;;;1.53;;
7361;SDS011;3721;44.490;11.220;2022-09-23T03:43:42;7.03;;;1.50;;
7361;SDS011;3721;44.490;11.220;2022-09-23T03:46:09;2.80;;;1.70;;
7361;SDS011;3721;44.490;11.220;2022-09-23T03:48:35;3.23;;;1.80;;
7361;SDS011;3721;44.490;11.220;2022-09-23T03:51:07;3.00;;;1.60;;
7361;SDS011;3721;44.490;11.220;2022-09-23T03:53:46;4.93;;;1.80;;
7361;SDS011;3721;44.490;11.220;2022-09-23T03:56:12;2.77;;;1.70;;
7361;SDS011;3721;44.490;11.220;2022-09-23T03:58:38;3.00;;;1.60;;
7361;SDS011;3721;44.490;11.220;2022-09-23T04:01:04;3.20;;;1.67;;
7361;SDS011;3721;44.490;11.220;2022-09-23T04:03:30;4.13;;;1.40;;
7361;SDS011;3721;44.490;11.220;2022-09-23T04:05:55;5.60;;;2.00;;
7361;SDS011;3721;44.490;11.220;2022-09-23T04:08:21;7.43;;;1.70;;
7361;SDS011;3721;44.490;11.220;2022-09-23T04:10:47;6.10;;;2.10;;
7361;SDS011;3721;44.490;11.220;2022-09-23T04:13:14;5.77;;;1.87;;
7361;SDS011;3721;44.490;11.220;2022-09-23T04:15:40;3.37;;;1.40;;
7361;SDS011;3721;44.490;11.220;2022-09-23T04:18:06;2.87;;;1.60;;
7361;SDS011;3721;44.490;11.220;2022-09-23T04:20:31;4.17;;;1.60;;
7361;SDS011;3721;44.490;11.220;2022-09-23T04:22:57;2.70;;;1.63;;
7361;SDS011;3721;44.490;11.220;2022-09-23T04:25:23;3.07;;;1.40;;
7361;SDS011;3721;44.490;11.220;2022-09-23T04:27:48;2.90;;;1.67;;
7361;SDS011;3721;44.490;11.220;2022-09-23T04:30:14;3.03;;;1.50;;
7361;SDS011;3721;44.490;11.220;2022-09-23T04:32:40;3.07;;;1.77;;
7361;SDS011;3721;44.490;11.220;2022-09-23T04:35:06;3.67;;;1.70;;
7361;SDS011;3721;44.490;11.220;2022-09-23T04:37:32;3.23;;;1.60;;
7361;SDS011;3721;44.490;11.220;2022-09-23T04:39:58;5.17;;;1.83;;
7361;SDS011;3721;44.490;11.220;2022-09-23T04:42:26;3.40;;;1.90;;
7361;SDS011;3721;44.490;11.220;2022-09-23T04:44:53;4.80;;;1.80;;
7361;SDS011;3721;44.490;11.220;2022-09-23T04:47:19;3.17;;;1.70;;
7361;SDS011;3721;44.490;11.220;2022-09-23T04:49:45;3.77;;;2.10;;
7361;SDS011;3721;44.490;11.220;2022-09-23T04:52:10;2.83;;;1.50;;
7361;SDS011;3721;44.490;11.220;2022-09-23T04:54:36;3.43;;;1.90;;
7361;SDS011;3721;44.490;11.220;2022-09-23T04:57:02;3.13;;;1.87;;
7361;SDS011;3721;44.490;11.220;2022-09-23T04:59:28;4.87;;;1.67;;
7361;SDS011;3721;44.490;11.220;2022-09-23T05:01:54;5.97;;;1.87;;
7361;SDS011;3721;44.490;11.220;2022-09-23T05:04:19;4.33;;;1.73;;
7361;SDS011;3721;44.490;11.220;2022-09-23T05:06:45;4.70;;;2.00;;
7361;SDS011;3721;44.490;11.220;2022-09-23T05:09:13;3.80;;;1.83;;
7361;SDS011;3721;44.490;11.220;2022-09-23T05:11:41;6.40;;;1.93;;
7361;SDS011;3721;44.490;11.220;2022-09-23T05:14:07;4.20;;;1.90;;
7361;SDS011;3721;44.490;11.220;2022-09-23T05:16:33;4.77;;;2.20;;
7361;SDS011;3721;44.490;11.220;2022-09-23T05:18:59;4.83;;;2.17;;
7361;SDS011;3721;44.490;11.220;2022-09-23T05:21:27;3.77;;;1.73;;
7361;SDS011;3721;44.490;11.220;2022-09-23T05:23:53;4.30;;;1.90;;
7361;SDS011;3721;44.490;11.220;2022-09-23T05:26:23;4.70;;;2.00;;
7361;SDS011;3721;44.490;11.220;2022-09-23T05:28:50;3.40;;;1.80;;
7361;SDS011;3721;44.490;11.220;2022-09-23T05:31:18;4.10;;;2.23;;
7361;SDS011;3721;44.490;11.220;2022-09-23T05:33:46;3.77;;;2.17;;
7361;SDS011;3721;44.490;11.220;2022-09-23T05:36:15;4.20;;;2.20;;
7361;SDS011;3721;44.490;11.220;2022-09-23T05:38:42;5.23;;;2.10;;
7361;SDS011;3721;44.490;11.220;2022-09-23T05:41:12;4.20;;;2.20;;
7361;SDS011;3721;44.490;11.220;2022-09-23T05:43:38;5.10;;;1.60;;
7361;SDS011;3721;44.490;11.220;2022-09-23T05:46:12;4.33;;;2.07;;
7361;SDS011;3721;44.490;11.220;2022-09-23T05:48:39;3.40;;;2.00;;
7361;SDS011;3721;44.490;11.220;2022-09-23T05:51:07;3.10;;;1.77;;
7361;SDS011;3721;44.490;11.220;2022-09-23T05:53:36;8.23;;;2.50;;
7361;SDS011;3721;44.490;11.220;2022-09-23T05:56:04;4.70;;;1.83;;
7361;SDS011;3721;44.490;11.220;2022-09-23T05:58:30;2.83;;;1.67;;
7361;SDS011;3721;44.490;11.220;2022-09-23T06:00:56;3.73;;;1.90;;
7361;SDS011;3721;44.490;11.220;2022-09-23T06:03:23;4.30;;;1.80;;
7361;SDS011;3721;44.490;11.220;2022-09-23T06:05:52;5.03;;;2.20;;
7361;SDS011;3721;44.490;11.220;2022-09-23T06:08:19;4.40;;;2.03;;
7361;SDS011;3721;44.490;11.220;2022-09-23T06:10:46;3.13;;;1.83;;
7361;SDS011;3721;44.490;11.220;2022-09-23T06:13:12;3.30;;;1.80;;
7361;SDS011;3721;44.490;11.220;2022-09-23T06:15:39;5.00;;;1.90;;
7361;SDS011;3721;44.490;11.220;2022-09-23T06:18:05;5.57;;;1.50;;
7361;SDS011;3721;44.490;11.220;2022-09-23T06:20:32;4.00;;;1.50;;
7361;SDS011;3721;44.490;11.220;2022-09-23T06:23:06;3.27;;;1.60;;
7361;SDS011;3721;44.490;11.220;2022-09-23T06:25:35;6.63;;;1.70;;
7361;SDS011;3721;44.490;11.220;2022-09-23T06:28:05;2.80;;;1.60;;
7361;SDS011;3721;44.490;11.220;2022-09-23T06:30:36;3.30;;;1.57;;
7361;SDS011;3721;44.490;11.220;2022-09-23T06:33:03;6.50;;;1.50;;
7361;SDS011;3721;44.490;11.220;2022-09-23T06:35:29;4.40;;;1.70;;
7361;SDS011;3721;44.490;11.220;2022-09-23T06:37:57;4.20;;;1.80;;
7361;SDS011;3721;44.490;11.220;2022-09-23T06:40:23;2.97;;;1.70;;
7361;SDS011;3721;44.490;11.220;2022-09-23T06:42:56;4.43;;;1.93;;
7361;SDS011;3721;44.490;11.220;2022-09-23T06:45:25;3.03;;;1.70;;
7361;SDS011;3721;44.490;11.220;2022-09-23T06:47:52;3.60;;;1.60;;
7361;SDS011;3721;44.490;11.220;2022-09-23T06:50:20;3.90;;;1.87;;
7361;SDS011;3721;44.490;11.220;2022-09-23T06:52:54;3.33;;;1.70;;
7361;SDS011;3721;44.490;11.220;2022-09-23T06:55:23;3.37;;;1.70;;
7361;SDS011;3721;44.490;11.220;2022-09-23T06:57:51;3.93;;;1.90;;
7361;SDS011;3721;44.490;11.220;2022-09-23T07:00:17;3.77;;;1.90;;
7361;SDS011;3721;44.490;11.220;2022-09-23T07:02:43;5.33;;;1.77;;
7361;SDS011;3721;44.490;11.220;2022-09-23T07:05:09;3.40;;;1.67;;
7361;SDS011;3721;44.490;11.220;2022-09-23T07:07:36;4.60;;;1.80;;
7361;SDS011;3721;44.490;11.220;2022-09-23T07:10:03;3.30;;;1.97;;
7361;SDS011;3721;44.490;11.220;2022-09-23T07:12:30;3.30;;;1.50;;
7361;SDS011;3721;44.490;11.220;2022-09-23T07:14:56;3.57;;;1.60;;
7361;SDS011;3721;44.490;11.220;2022-09-23T07:17:22;3.73;;;1.63;;
7361;SDS011;3721;44.490;11.220;2022-09-23T07:19:48;5.13;;;1.70;;
7361;SDS011;3721;44.490;11.220;2022-09-23T07:22:15;3.77;;;1.60;;
7361;SDS011;3721;44.490;11.220;2022-09-23T07:24:42;4.07;;;1.80;;
7361;SDS011;3721;44.490;11.220;2022-09-23T07:27:10;9.53;;;1.70;;
7361;SDS011;3721;44.490;11.220;2022-09-23T07:29:43;5.13;;;1.73;;
7361;SDS011;3721;44.490;11.220;2022-09-23T07:32:09;3.83;;;1.70;;
7361;SDS011;3721;44.490;11.220;2022-09-23T07:34:36;6.60;;;1.57;;
7361;SDS011;3721;44.490;11.220;2022-09-23T07:37:02;3.03;;;1.60;;
7361;SDS011;3721;44.490;11.220;2022-09-23T07:39:28;4.87;;;1.57;;
7361;SDS011;3721;44.490;11.220;2022-09-23T07:41:54;4.33;;;1.93;;
7361;SDS011;3721;44.490;11.220;2022-09-23T07:44:20;6.70;;;2.13;;
7361;SDS011;3721;44.490;11.220;2022-09-23T07:46:46;4.30;;;1.97;;
7361;SDS011;3721;44.490;11.220;2022-09-23T07:49:14;5.07;;;2.10;;
7361;SDS011;3721;44.490;11.220;2022-09-23T07:51:40;10.13;;;2.10;;
7361;SDS011;3721;44.490;11.220;2022-09-23T07:54:11;8.70;;;2.20;;
7361;SDS011;3721;44.490;11.220;2022-09-23T07:56:39;6.93;;;2.63;;
7361;SDS011;3721;44.490;11.220;2022-09-23T07:59:07;7.40;;;2.50;;
7361;SDS011;3721;44.490;11.220;2022-09-23T08:01:36;4.97;;;2.37;;
7361;SDS011;3721;44.490;11.220;2022-09-23T08:04:07;5.40;;;2.20;;
7361;SDS011;3721;44.490;11.220;2022-09-23T08:06:51;5.10;;;2.20;;
7361;SDS011;3721;44.490;11.220;2022-09-23T08:09:23;8.60;;;2.30;;
7361;SDS011;3721;44.490;11.220;2022-09-23T08:11:52;5.53;;;2.10;;
7361;SDS011;3721;44.490;11.220;2022-09-23T08:14:18;5.30;;;1.90;;
7361;SDS011;3721;44.490;11.220;2022-09-23T08:16:46;3.40;;;2.00;;
7361;SDS011;3721;44.490;11.220;2022-09-23T08:19:13;6.30;;;2.27;;
7361;SDS011;3721;44.490;11.220;2022-09-23T08:21:39;4.60;;;1.70;;
7361;SDS011;3721;44.490;11.220;2022-09-23T08:24:06;2.90;;;1.40;;
7361;SDS011;3721;44.490;11.220;2022-09-23T08:26:33;5.93;;;1.47;;
7361;SDS011;3721;44.490;11.220;2022-09-23T08:28:59;4.27;;;1.70;;
7361;SDS011;3721;44.490;11.220;2022-09-23T08:31:25;3.33;;;1.50;;
7361;SDS011;3721;44.490;11.220;2022-09-23T08:33:54;3.20;;;1.60;;
7361;SDS011;3721;44.490;11.220;2022-09-23T08:36:21;2.60;;;1.30;;
7361;SDS011;3721;44.490;11.220;2022-09-23T08:38:48;2.50;;;1.40;;
7361;SDS011;3721;44.490;11.220;2022-09-23T08:44:12;2.53;;;1.20;;
7361;SDS011;3721;44.490;11.220;2022-09-23T08:46:42;2.93;;;1.50;;
7361;SDS011;3721;44.490;11.220;2022-09-23T08:49:13;2.33;;;1.10;;
7361;SDS011;3721;44.490;11.220;2022-09-23T08:51:47;3.50;;;1.50;;
7361;SDS011;3721;44.490;11.220;2022-09-23T08:54:15;3.50;;;1.30;;
7361;SDS011;3721;44.490;11.220;2022-09-23T08:56:43;2.73;;;1.47;;
7361;SDS011;3721;44.490;11.220;2022-09-23T09:02:09;3.00;;;1.40;;
7361;SDS011;3721;44.490;11.220;2022-09-23T09:04:39;2.80;;;1.20;;
7361;SDS011;3721;44.490;11.220;2022-09-23T09:09:48;3.00;;;1.73;;
7361;SDS011;3721;44.490;11.220;2022-09-23T09:14:56;3.80;;;1.73;;
7361;SDS011;3721;44.490;11.220;2022-09-23T09:17:38;2.90;;;1.40;;
7361;SDS011;3721;44.490;11.220;2022-09-23T09:22:48;2.87;;;1.57;;
7361;SDS011;3721;44.490;11.220;2022-09-23T09:25:27;2.67;;;1.30;;
7361;SDS011;3721;44.490;11.220;2022-09-23T09:28:11;2.83;;;1.33;;
7361;SDS011;3721;44.490;11.220;2022-09-23T09:30:44;3.63;;;1.50;;
7361;SDS011;3721;44.490;11.220;2022-09-23T09:33:15;2.60;;;1.30;;
7361;SDS011;3721;44.490;11.220;2022-09-23T09:38:33;2.70;;;1.30;;
7361;SDS011;3721;44.490;11.220;2022-09-23T09:41:08;2.70;;;1.40;;
7361;SDS011;3721;44.490;11.220;2022-09-23T09:43:40;2.50;;;1.20;;
7361;SDS011;3721;44.490;11.220;2022-09-23T09:48:51;4.03;;;1.60;;
7361;SDS011;3721;44.490;11.220;2022-09-23T09:53:48;3.97;;;1.73;;
7361;SDS011;3721;44.490;11.220;2022-09-23T09:56:17;3.40;;;1.57;;
7361;SDS011;3721;44.490;11.220;2022-09-23T10:01:20;2.83;;;1.33;;
7361;SDS011;3721;44.490;11.220;2022-09-23T10:03:51;2.60;;;1.30;;
7361;SDS011;3721;44.490;11.220;2022-09-23T10:11:37;4.30;;;1.33;;
7361;SDS011;3721;44.490;11.220;2022-09-23T10:14:16;3.73;;;1.40;;
7361;SDS011;3721;44.490;11.220;2022-09-23T10:16:43;3.93;;;1.70;;
7361;SDS011;3721;44.490;11.220;2022-09-23T10:19:12;2.60;;;1.20;;
7361;SDS011;3721;44.490;11.220;2022-09-23T10:21:54;3.33;;;1.50;;
7361;SDS011;3721;44.490;11.220;2022-09-23T10:24:33;2.57;;;1.20;;
7361;SDS011;3721;44.490;11.220;2022-09-23T10:27:03;3.10;;;1.30;;
7361;SDS011;3721;44.490;11.220;2022-09-23T10:29:36;2.70;;;1.37;;
7361;SDS011;3721;44.490;11.220;2022-09-23T10:35:01;2.60;;;1.30;;
7361;SDS011;3721;44.490;11.220;2022-09-23T10:40:16;2.70;;;1.30;;
7361;SDS011;3721;44.490;11.220;2022-09-23T10:43:21;3.80;;;1.30;;
7361;SDS011;3721;44.490;11.220;2022-09-23T10:51:57;2.90;;;1.30;;
7361;SDS011;3721;44.490;11.220;2022-09-23T11:01:01;2.60;;;1.27;;
7361;SDS011;3721;44.490;11.220;2022-09-23T11:17:08;3.13;;;1.37;;
7361;SDS011;3721;44.490;11.220;2022-09-23T11:25:50;3.27;;;1.60;;
7361;SDS011;3721;44.490;11.220;2022-09-23T11:37:11;2.80;;;1.20;;
7361;SDS011;3721;44.490;11.220;2022-09-23T11:42:30;3.30;;;1.27;;
7361;SDS011;3721;44.490;11.220;2022-09-23T11:48:00;7.80;;;1.53;;
7361;SDS011;3721;44.490;11.220;2022-09-23T11:50:35;2.60;;;1.40;;
7361;SDS011;3721;44.490;11.220;2022-09-23T11:53:16;2.70;;;1.40;;
7361;SDS011;3721;44.490;11.220;2022-09-23T11:55:48;3.57;;;1.40;;
7361;SDS011;3721;44.490;11.220;2022-09-23T11:58:40;3.30;;;1.27;;
7361;SDS011;3721;44.490;11.220;2022-09-23T12:01:16;2.73;;;1.50;;
7361;SDS011;3721;44.490;11.220;2022-09-23T12:03:49;4.10;;;2.00;;
7361;SDS011;3721;44.490;11.220;2022-09-23T12:06:51;3.10;;;1.37;;
7361;SDS011;3721;44.490;11.220;2022-09-23T12:09:35;3.30;;;1.60;;
7361;SDS011;3721;44.490;11.220;2022-09-23T12:15:01;2.73;;;1.50;;
7361;SDS011;3721;44.490;11.220;2022-09-23T12:17:57;2.83;;;1.33;;
7361;SDS011;3721;44.490;11.220;2022-09-23T12:25:54;2.83;;;1.43;;
7361;SDS011;3721;44.490;11.220;2022-09-23T12:28:26;5.60;;;1.50;;
7361;SDS011;3721;44.490;11.220;2022-09-23T12:31:01;3.27;;;1.60;;
7361;SDS011;3721;44.490;11.220;2022-09-23T12:33:32;3.13;;;1.60;;
7361;SDS011;3721;44.490;11.220;2022-09-23T12:36:06;4.70;;;1.40;;
7361;SDS011;3721;44.490;11.220;2022-09-23T12:38:35;3.30;;;1.43;;
7361;SDS011;3721;44.490;11.220;2022-09-23T12:41:01;3.13;;;1.30;;
7361;SDS011;3721;44.490;11.220;2022-09-23T12:43:53;5.77;;;1.40;;
7361;SDS011;3721;44.490;11.220;2022-09-23T12:46:26;3.40;;;1.60;;
7361;SDS011;3721;44.490;11.220;2022-09-23T12:51:25;3.90;;;1.50;;
7361;SDS011;3721;44.490;11.220;2022-09-23T12:53:56;2.87;;;1.23;;
7361;SDS011;3721;44.490;11.220;2022-09-23T12:56:25;2.83;;;1.60;;
7361;SDS011;3721;44.490;11.220;2022-09-23T13:01:22;3.57;;;1.23;;
7361;SDS011;3721;44.490;11.220;2022-09-23T13:03:50;2.93;;;1.50;;
7361;SDS011;3721;44.490;11.220;2022-09-23T13:06:40;2.80;;;1.43;;
7361;SDS011;3721;44.490;11.220;2022-09-23T13:09:12;2.70;;;1.40;;
7361;SDS011;3721;44.490;11.220;2022-09-23T13:11:43;2.60;;;1.30;;
7361;SDS011;3721;44.490;11.220;2022-09-23T13:14:12;8.87;;;1.60;;
7361;SDS011;3721;44.490;11.220;2022-09-23T13:16:43;3.30;;;1.63;;
7361;SDS011;3721;44.490;11.220;2022-09-23T13:29:25;2.90;;;1.60;;
7361;SDS011;3721;44.490;11.220;2022-09-23T13:32:14;3.90;;;1.90;;
7361;SDS011;3721;44.490;11.220;2022-09-23T13:35:00;4.77;;;1.90;;
7361;SDS011;3721;44.490;11.220;2022-09-23T13:40:17;2.90;;;1.40;;
7361;SDS011;3721;44.490;11.220;2022-09-23T13:42:52;3.27;;;1.60;;
7361;SDS011;3721;44.490;11.220;2022-09-23T13:45:20;3.10;;;1.40;;
7361;SDS011;3721;44.490;11.220;2022-09-23T13:47:48;3.37;;;1.57;;
7361;SDS011;3721;44.490;11.220;2022-09-23T13:50:19;5.20;;;1.60;;
7361;SDS011;3721;44.490;11.220;2022-09-23T13:52:51;2.70;;;1.40;;
7361;SDS011;3721;44.490;11.220;2022-09-23T13:55:31;3.30;;;1.60;;
7361;SDS011;3721;44.490;11.220;2022-09-23T13:58:12;3.30;;;1.50;;
7361;SDS011;3721;44.490;11.220;2022-09-23T14:00:49;3.10;;;1.70;;
7361;SDS011;3721;44.490;11.220;2022-09-23T14:03:16;3.87;;;1.63;;
7361;SDS011;3721;44.490;11.220;2022-09-23T14:05:56;3.10;;;1.57;;
7361;SDS011;3721;44.490;11.220;2022-09-23T14:08:24;4.10;;;1.53;;
7361;SDS011;3721;44.490;11.220;2022-09-23T14:10:50;5.70;;;1.30;;
7361;SDS011;3721;44.490;11.220;2022-09-23T14:13:21;3.97;;;1.57;;
7361;SDS011;3721;44.490;11.220;2022-09-23T14:15:53;3.10;;;1.60;;
7361;SDS011;3721;44.490;11.220;2022-09-23T14:18:35;2.80;;;1.47;;
7361;SDS011;3721;44.490;11.220;2022-09-23T14:21:25;2.80;;;1.60;;
7361;SDS011;3721;44.490;11.220;2022-09-23T14:23:51;4.30;;;1.50;;
7361;SDS011;3721;44.490;11.220;2022-09-23T14:26:17;3.07;;;1.40;;
7361;SDS011;3721;44.490;11.220;2022-09-23T14:28:43;7.60;;;1.80;;
7361;SDS011;3721;44.490;11.220;2022-09-23T14:31:11;6.37;;;1.90;;
7361;SDS011;3721;44.490;11.220;2022-09-23T14:33:40;3.67;;;1.63;;
7361;SDS011;3721;44.490;11.220;2022-09-23T14:36:08;5.33;;;1.50;;
7361;SDS011;3721;44.490;11.220;2022-09-23T14:39:01;2.83;;;1.53;;
7361;SDS011;3721;44.490;11.220;2022-09-23T14:41:37;2.57;;;1.30;;
7361;SDS011;3721;44.490;11.220;2022-09-23T14:44:06;2.90;;;1.50;;
7361;SDS011;3721;44.490;11.220;2022-09-23T14:46:42;2.80;;;1.40;;
7361;SDS011;3721;44.490;11.220;2022-09-23T14:49:21;3.10;;;1.50;;
7361;SDS011;3721;44.490;11.220;2022-09-23T14:56:58;4.70;;;1.60;;
7361;SDS011;3721;44.490;11.220;2022-09-23T14:59:34;3.03;;;1.60;;
7361;SDS011;3721;44.490;11.220;2022-09-23T15:02:01;3.03;;;1.50;;
7361;SDS011;3721;44.490;11.220;2022-09-23T15:04:48;4.87;;;1.47;;
7361;SDS011;3721;44.490;11.220;2022-09-23T15:07:17;4.93;;;1.67;;
7361;SDS011;3721;44.490;11.220;2022-09-23T15:09:44;2.70;;;1.40;;
7361;SDS011;3721;44.490;11.220;2022-09-23T15:12:14;3.03;;;1.67;;
7361;SDS011;3721;44.490;11.220;2022-09-23T15:14:49;11.13;;;1.50;;
7361;SDS011;3721;44.490;11.220;2022-09-23T15:17:27;3.93;;;1.50;;
7361;SDS011;3721;44.490;11.220;2022-09-23T15:19:59;4.07;;;1.47;;
7361;SDS011;3721;44.490;11.220;2022-09-23T15:22:41;7.13;;;1.67;;
7361;SDS011;3721;44.490;11.220;2022-09-23T15:25:17;3.30;;;1.70;;
7361;SDS011;3721;44.490;11.220;2022-09-23T15:30:34;3.30;;;1.43;;
7361;SDS011;3721;44.490;11.220;2022-09-23T15:33:00;4.40;;;1.83;;
7361;SDS011;3721;44.490;11.220;2022-09-23T15:35:26;3.60;;;1.57;;
7361;SDS011;3721;44.490;11.220;2022-09-23T15:37:56;4.60;;;1.53;;
7361;SDS011;3721;44.490;11.220;2022-09-23T15:42:57;5.13;;;1.50;;
7361;SDS011;3721;44.490;11.220;2022-09-23T15:45:35;4.47;;;1.60;;
7361;SDS011;3721;44.490;11.220;2022-09-23T15:48:09;4.63;;;1.70;;
7361;SDS011;3721;44.490;11.220;2022-09-23T15:50:37;3.50;;;1.50;;
7361;SDS011;3721;44.490;11.220;2022-09-23T15:53:04;3.00;;;1.60;;
7361;SDS011;3721;44.490;11.220;2022-09-23T15:55:30;6.80;;;1.73;;
7361;SDS011;3721;44.490;11.220;2022-09-23T15:57:57;4.73;;;1.80;;
7361;SDS011;3721;44.490;11.220;2022-09-23T16:00:23;4.53;;;1.70;;
7361;SDS011;3721;44.490;11.220;2022-09-23T16:02:49;7.90;;;1.63;;
7361;SDS011;3721;44.490;11.220;2022-09-23T16:05:25;3.37;;;1.60;;
7361;SDS011;3721;44.490;11.220;2022-09-23T16:08:00;4.20;;;1.40;;
7361;SDS011;3721;44.490;11.220;2022-09-23T16:10:26;3.17;;;1.60;;
7361;SDS011;3721;44.490;11.220;2022-09-23T16:12:52;4.50;;;1.67;;
7361;SDS011;3721;44.490;11.220;2022-09-23T16:15:21;3.83;;;1.53;;
7361;SDS011;3721;44.490;11.220;2022-09-23T16:17:47;5.90;;;1.70;;
7361;SDS011;3721;44.490;11.220;2022-09-23T16:20:14;3.50;;;1.73;;
7361;SDS011;3721;44.490;11.220;2022-09-23T16:22:42;3.43;;;1.63;;
7361;SDS011;3721;44.490;11.220;2022-09-23T16:25:18;4.37;;;1.97;;
7361;SDS011;3721;44.490;11.220;2022-09-23T16:27:45;5.97;;;2.70;;
7361;SDS011;3721;44.490;11.220;2022-09-23T16:30:11;4.43;;;2.30;;
7361;SDS011;3721;44.490;11.220;2022-09-23T16:32:37;3.13;;;1.73;;
7361;SDS011;3721;44.490;11.220;2022-09-23T16:35:03;4.60;;;1.70;;
7361;SDS011;3721;44.490;11.220;2022-09-23T16:37:30;4.67;;;1.83;;
7361;SDS011;3721;44.490;11.220;2022-09-23T16:39:56;6.60;;;1.83;;
7361;SDS011;3721;44.490;11.220;2022-09-23T16:42:23;3.10;;;1.53;;
7361;SDS011;3721;44.490;11.220;2022-09-23T16:44:49;3.80;;;2.00;;
7361;SDS011;3721;44.490;11.220;2022-09-23T16:47:14;3.43;;;1.90;;
7361;SDS011;3721;44.490;11.220;2022-09-23T16:49:40;5.80;;;1.97;;
7361;SDS011;3721;44.490;11.220;2022-09-23T16:52:06;3.00;;;1.70;;
7361;SDS011;3721;44.490;11.220;2022-09-23T16:54:33;3.77;;;2.30;;
7361;SDS011;3721;44.490;11.220;2022-09-23T16:57:01;5.40;;;2.10;;
7361;SDS011;3721;44.490;11.220;2022-09-23T16:59:27;7.97;;;1.93;;
7361;SDS011;3721;44.490;11.220;2022-09-23T17:02:12;3.40;;;1.90;;
7361;SDS011;3721;44.490;11.220;2022-09-23T17:04:56;7.50;;;2.10;;
7361;SDS011;3721;44.490;11.220;2022-09-23T17:07:22;3.53;;;1.90;;
7361;SDS011;3721;44.490;11.220;2022-09-23T17:09:48;4.73;;;2.13;;
7361;SDS011;3721;44.490;11.220;2022-09-23T17:12:28;6.13;;;2.00;;
7361;SDS011;3721;44.490;11.220;2022-09-23T17:14:56;4.30;;;2.00;;
7361;SDS011;3721;44.490;11.220;2022-09-23T17:17:23;4.90;;;2.10;;
7361;SDS011;3721;44.490;11.220;2022-09-23T17:19:48;5.47;;;2.30;;
